createdAt,value
2018-06-15T00:01:11.690Z,99.80
2018-06-15T00:03:44.087Z,99.60
2018-06-15T00:06:16.456Z,99.90
2018-06-15T00:08:49.149Z,99.70
2018-06-15T00:11:21.785Z,99.90
2018-06-15T00:13:54.481Z,99.90
2018-06-15T00:16:27.233Z,99.90
2018-06-15T00:18:59.633Z,99.80
2018-06-15T00:21:32.014Z,99.80
2018-06-15T00:24:04.437Z,99.80
2018-06-15T00:26:37.125Z,99.90
2018-06-15T00:29:09.559Z,99.70
2018-06-15T00:31:42.230Z,99.90
2018-06-15T00:34:14.657Z,99.90
2018-06-15T00:36:47.072Z,99.70
2018-06-15T00:39:19.485Z,99.50
2018-06-15T00:41:51.873Z,99.80
2018-06-15T00:44:24.557Z,99.90
2018-06-15T00:46:56.953Z,99.90
2018-06-15T00:49:29.350Z,99.90
2018-06-15T00:52:01.792Z,99.90
2018-06-15T00:54:34.178Z,99.90
2018-06-15T00:57:17.870Z,99.90
2018-06-15T00:59:50.605Z,99.90
2018-06-15T01:02:23.285Z,99.90
2018-06-15T01:04:55.695Z,99.90
2018-06-15T01:07:28.402Z,99.90
2018-06-15T01:10:01.117Z,99.90
2018-06-15T01:12:33.517Z,99.90
2018-06-15T01:15:05.910Z,99.90
2018-06-15T01:17:38.312Z,99.90
2018-06-15T01:20:11.113Z,99.90
2018-06-15T01:22:43.489Z,99.90
2018-06-15T01:25:15.889Z,99.90
2018-06-15T01:27:48.266Z,99.90
2018-06-15T01:30:20.663Z,99.90
2018-06-15T01:32:53.060Z,99.90
2018-06-15T01:35:25.457Z,99.90
2018-06-15T01:37:57.837Z,99.90
2018-06-15T01:40:30.881Z,99.90
2018-06-15T01:43:03.269Z,99.90
2018-06-15T01:45:35.670Z,99.90
2018-06-15T01:48:08.637Z,99.90
2018-06-15T01:50:41.317Z,99.90
2018-06-15T01:53:13.994Z,99.90
2018-06-15T01:55:46.656Z,99.90
2018-06-15T01:58:19.249Z,99.90
2018-06-15T02:00:51.873Z,99.90
2018-06-15T02:03:24.255Z,99.90
2018-06-15T02:05:56.633Z,99.90
2018-06-15T02:08:29.347Z,99.90
2018-06-15T02:11:01.750Z,99.90
2018-06-15T02:13:34.438Z,99.90
2018-06-15T02:16:07.410Z,99.90
2018-06-15T02:18:40.075Z,99.90
2018-06-15T02:21:12.824Z,99.90
2018-06-15T02:23:45.489Z,99.90
2018-06-15T02:26:17.954Z,99.90
2018-06-15T02:28:50.646Z,99.90
2018-06-15T02:31:23.053Z,99.90
2018-06-15T02:33:55.794Z,99.90
2018-06-15T02:36:28.222Z,99.90
2018-06-15T02:39:00.608Z,99.90
2018-06-15T02:41:33.022Z,99.90
2018-06-15T02:44:05.973Z,99.90
2018-06-15T02:46:38.381Z,99.90
2018-06-15T02:49:10.878Z,99.90
2018-06-15T02:51:43.275Z,99.90
2018-06-15T02:54:15.742Z,99.90
2018-06-15T02:56:48.493Z,99.90
2018-06-15T02:59:21.125Z,99.90
2018-06-15T03:01:53.543Z,99.90
2018-06-15T03:04:26.233Z,99.90
2018-06-15T03:06:58.645Z,99.90
2018-06-15T03:09:31.019Z,99.90
2018-06-15T03:12:03.713Z,99.90
2018-06-15T03:14:36.106Z,99.90
2018-06-15T03:17:08.810Z,99.90
2018-06-15T03:19:41.432Z,99.90
2018-06-15T03:22:14.145Z,99.90
2018-06-15T03:24:46.535Z,99.90
2018-06-15T03:27:18.941Z,99.90
2018-06-15T03:29:51.572Z,99.90
2018-06-15T03:32:23.966Z,99.90
2018-06-15T03:34:56.347Z,99.90
2018-06-15T03:37:28.789Z,99.90
2018-06-15T03:40:01.192Z,99.90
2018-06-15T03:42:33.610Z,99.90
2018-06-15T03:45:06.028Z,99.90
2018-06-15T03:47:38.405Z,99.90
2018-06-15T03:50:10.818Z,99.90
2018-06-15T03:52:43.511Z,99.90
2018-06-15T03:55:15.915Z,99.90
2018-06-15T03:57:48.600Z,99.90
2018-06-15T04:00:21.024Z,99.90
2018-06-15T04:02:53.405Z,99.90
2018-06-15T04:05:25.798Z,99.90
2018-06-15T04:07:58.188Z,99.90
2018-06-15T04:10:30.826Z,99.90
2018-06-15T04:13:03.786Z,99.90
2018-06-15T04:15:36.426Z,99.90
2018-06-15T04:18:08.813Z,99.90
2018-06-15T04:20:41.246Z,99.90
2018-06-15T04:23:13.909Z,99.90
2018-06-15T04:25:46.590Z,99.90
2018-06-15T04:28:19.026Z,99.90
2018-06-15T04:30:51.461Z,99.90
2018-06-15T04:33:23.946Z,99.90
2018-06-15T04:35:56.347Z,99.90
2018-06-15T04:38:28.722Z,99.90
2018-06-15T04:41:01.375Z,99.90
2018-06-15T04:43:33.754Z,99.90
2018-06-15T04:46:06.193Z,99.80
2018-06-15T04:48:38.618Z,99.60
2018-06-15T04:51:11.029Z,99.30
2018-06-15T04:53:43.709Z,99.10
2018-06-15T04:56:16.190Z,99.10
2018-06-15T04:58:48.581Z,98.90
2018-06-15T05:01:20.991Z,98.70
2018-06-15T05:03:53.687Z,98.40
2018-06-15T05:06:26.318Z,98.40
2018-06-15T05:08:58.954Z,98.30
2018-06-15T05:11:31.358Z,98.30
2018-06-15T05:14:03.769Z,98.30
2018-06-15T05:16:36.173Z,98.50
2018-06-15T05:19:08.891Z,98.60
2018-06-15T05:21:41.534Z,98.60
2018-06-15T05:24:14.190Z,98.60
2018-06-15T05:26:46.618Z,98.60
2018-06-15T05:29:18.999Z,98.10
2018-06-15T05:31:51.398Z,98.00
2018-06-15T05:34:23.810Z,97.90
2018-06-15T05:36:56.210Z,98.00
2018-06-15T05:39:29.195Z,98.10
2018-06-15T05:42:01.636Z,98.00
2018-06-15T05:44:34.037Z,97.80
2018-06-15T05:49:38.780Z,97.50
2018-06-15T05:52:11.184Z,97.40
2018-06-15T05:54:43.581Z,97.20
2018-06-15T05:57:16.003Z,96.80
2018-06-15T05:59:48.681Z,97.00
2018-06-15T06:02:21.096Z,96.70
2018-06-15T06:04:53.487Z,96.40
2018-06-15T06:07:26.166Z,96.20
2018-06-15T06:09:58.675Z,95.80
2018-06-15T06:12:31.085Z,96.00
2018-06-15T06:15:03.796Z,95.80
2018-06-15T06:17:36.207Z,95.80
2018-06-15T06:20:08.779Z,95.80
2018-06-15T06:22:41.197Z,95.90
2018-06-15T06:25:13.590Z,95.70
2018-06-15T06:27:46.095Z,95.40
2018-06-15T06:30:18.477Z,95.40
2018-06-15T06:32:51.454Z,95.10
2018-06-15T06:35:24.081Z,94.70
2018-06-15T06:37:56.820Z,93.30
2018-06-15T06:40:29.458Z,92.30
2018-06-15T06:43:01.853Z,88.80
2018-06-15T06:45:34.242Z,85.40
2018-06-15T06:48:06.808Z,83.10
2018-06-15T06:50:39.546Z,82.10
2018-06-15T06:53:11.873Z,82.20
2018-06-15T06:55:44.335Z,83.40
2018-06-15T06:58:16.750Z,83.30
2018-06-15T07:00:49.474Z,83.40
2018-06-15T07:03:21.884Z,82.20
2018-06-15T07:05:54.279Z,81.10
2018-06-15T07:08:26.677Z,81.70
2018-06-15T07:10:59.188Z,79.80
2018-06-15T07:13:31.867Z,79.00
2018-06-15T07:16:04.580Z,81.00
2018-06-15T07:18:37.280Z,80.70
2018-06-15T07:21:09.669Z,80.70
2018-06-15T07:23:42.383Z,82.50
2018-06-15T07:26:15.094Z,83.60
2018-06-15T07:28:47.505Z,84.00
2018-06-15T07:31:19.909Z,84.80
2018-06-15T07:33:52.325Z,85.40
2018-06-15T07:36:25.052Z,84.30
2018-06-15T07:38:57.453Z,81.90
2018-06-15T07:41:30.094Z,80.60
2018-06-15T07:44:02.498Z,79.10
2018-06-15T07:46:34.897Z,78.80
2018-06-15T07:49:07.602Z,78.30
2018-06-15T07:51:40.262Z,78.90
2018-06-15T07:54:12.961Z,76.40
2018-06-15T07:56:45.345Z,75.50
2018-06-15T07:59:17.737Z,75.50
2018-06-15T08:01:50.193Z,75.10
2018-06-15T08:04:22.580Z,75.20
2018-06-15T08:06:54.966Z,73.60
2018-06-15T08:09:27.670Z,70.50
2018-06-15T08:12:00.055Z,69.50
2018-06-15T08:14:32.674Z,69.00
2018-06-15T08:17:05.160Z,69.30
2018-06-15T08:19:37.903Z,70.90
2018-06-15T08:24:42.505Z,68.40
2018-06-15T08:27:15.137Z,68.70
2018-06-15T08:29:47.819Z,69.50
2018-06-15T08:32:20.515Z,69.70
2018-06-15T08:34:53.478Z,70.20
2018-06-15T08:37:26.321Z,70.70
2018-06-15T08:39:59.002Z,71.10
2018-06-15T08:42:31.385Z,69.50
2018-06-15T08:45:04.045Z,67.60
2018-06-15T08:47:36.449Z,65.40
2018-06-15T08:50:08.881Z,63.80
2018-06-15T08:52:41.352Z,64.80
2018-06-15T08:55:13.701Z,66.10
2018-06-15T08:57:46.185Z,67.60
2018-06-15T09:00:18.626Z,68.20
2018-06-15T09:02:51.012Z,69.10
2018-06-15T09:05:23.417Z,70.70
2018-06-15T09:07:55.809Z,72.10
2018-06-15T09:10:28.197Z,72.60
2018-06-15T09:15:33.468Z,73.40
2018-06-15T09:18:06.118Z,73.90
2018-06-15T09:20:38.515Z,74.30
2018-06-15T09:23:10.906Z,75.00
2018-06-15T09:25:43.353Z,75.00
2018-06-15T09:28:15.989Z,75.60
2018-06-15T09:30:48.408Z,76.40
2018-06-15T09:33:20.794Z,76.00
2018-06-15T09:35:53.195Z,75.20
2018-06-15T09:38:25.587Z,74.90
2018-06-15T09:40:57.992Z,72.20
2018-06-15T09:43:30.625Z,70.90
2018-06-15T09:46:03.328Z,66.80
2018-06-15T09:48:36.250Z,65.50
2018-06-15T09:51:09.093Z,63.10
2018-06-15T09:53:41.473Z,59.40
2018-06-15T09:56:13.918Z,58.90
2018-06-15T09:58:46.309Z,56.60
2018-06-15T10:01:19.006Z,58.00
2018-06-15T10:03:51.657Z,58.60
2018-06-15T10:06:24.062Z,59.50
2018-06-15T10:08:56.760Z,59.40
2018-06-15T10:11:29.385Z,60.30
2018-06-15T10:14:02.130Z,60.60
2018-06-15T10:16:34.603Z,60.80
2018-06-15T10:19:07.247Z,59.20
2018-06-15T10:21:39.901Z,59.10
2018-06-15T10:24:12.602Z,57.90
2018-06-15T10:26:44.981Z,55.60
2018-06-15T10:29:17.680Z,55.20
2018-06-15T10:31:50.065Z,55.80
2018-06-15T10:34:22.552Z,54.40
2018-06-15T10:36:55.268Z,55.90
2018-06-15T10:39:27.736Z,55.50
2018-06-15T10:42:00.410Z,54.10
2018-06-15T10:44:33.122Z,53.20
2018-06-15T10:47:05.505Z,53.50
2018-06-15T10:49:37.901Z,53.80
2018-06-15T10:52:10.926Z,52.60
2018-06-15T10:54:43.925Z,52.30
2018-06-15T10:57:16.630Z,52.60
2018-06-15T10:59:49.310Z,54.60
2018-06-15T11:02:22.084Z,55.90
2018-06-15T11:04:54.726Z,55.90
2018-06-15T11:07:27.114Z,54.70
2018-06-15T11:09:59.537Z,53.70
2018-06-15T11:12:31.906Z,52.80
2018-06-15T11:15:04.872Z,51.70
2018-06-15T11:17:37.283Z,50.40
2018-06-15T11:20:09.694Z,50.80
2018-06-15T11:22:42.090Z,51.70
2018-06-15T11:25:14.560Z,52.20
2018-06-15T11:27:46.969Z,50.60
2018-06-15T11:30:19.614Z,51.60
2018-06-15T11:32:52.242Z,52.70
2018-06-15T11:35:24.950Z,54.10
2018-06-15T11:37:57.613Z,54.20
2018-06-15T11:40:30.015Z,53.80
2018-06-15T11:43:02.699Z,52.40
2018-06-15T11:45:35.099Z,51.60
2018-06-15T11:48:07.486Z,51.40
2018-06-15T11:50:39.927Z,51.10
2018-06-15T11:53:12.599Z,53.10
2018-06-15T11:55:45.273Z,53.00
2018-06-15T11:58:17.903Z,53.70
2018-06-15T12:00:50.622Z,53.50
2018-06-15T12:03:23.018Z,53.40
2018-06-15T12:05:55.431Z,55.20
2018-06-15T12:08:27.826Z,56.40
2018-06-15T12:11:00.526Z,57.20
2018-06-15T12:13:32.946Z,57.70
2018-06-15T12:16:05.682Z,57.80
2018-06-15T12:18:38.298Z,58.10
2018-06-15T12:21:10.694Z,59.30
2018-06-15T12:23:43.097Z,59.20
2018-06-15T12:26:15.489Z,59.70
2018-06-15T12:28:48.185Z,60.50
2018-06-15T12:31:20.577Z,60.40
2018-06-15T12:33:52.979Z,59.00
2018-06-15T12:36:25.647Z,59.30
2018-06-15T12:38:58.310Z,59.40
2018-06-15T12:41:30.981Z,58.50
2018-06-15T12:44:03.674Z,58.70
2018-06-15T12:46:36.342Z,58.70
2018-06-15T12:49:08.761Z,59.00
2018-06-15T12:51:41.548Z,59.70
2018-06-15T12:54:13.954Z,58.70
2018-06-15T12:56:46.674Z,59.60
2018-06-15T12:59:19.760Z,59.70
2018-06-15T13:01:52.174Z,59.90
2018-06-15T13:04:24.610Z,60.60
2018-06-15T13:06:57.020Z,60.30
2018-06-15T13:09:29.647Z,60.40
2018-06-15T13:12:02.357Z,61.50
2018-06-15T13:14:34.754Z,60.70
2018-06-15T13:17:07.154Z,60.60
2018-06-15T13:19:39.609Z,61.50
2018-06-15T13:22:12.561Z,60.70
2018-06-15T13:24:45.036Z,60.80
2018-06-15T13:27:17.918Z,60.80
2018-06-15T13:29:50.573Z,60.00
2018-06-15T13:32:22.977Z,59.90
2018-06-15T13:34:55.718Z,60.60
2018-06-15T13:37:28.738Z,59.90
2018-06-15T13:40:01.126Z,60.80
2018-06-15T13:42:33.849Z,60.70
2018-06-15T13:45:06.527Z,60.40
2018-06-15T13:47:38.945Z,59.80
2018-06-15T13:50:11.350Z,59.60
2018-06-15T13:52:43.754Z,59.40
2018-06-15T13:55:16.430Z,58.70
2018-06-15T13:57:48.850Z,57.80
2018-06-15T14:00:21.320Z,57.90
2018-06-15T14:02:53.670Z,58.20
2018-06-15T14:05:26.309Z,57.30
2018-06-15T14:07:59.004Z,57.40
2018-06-15T14:10:31.513Z,56.10
2018-06-15T14:15:36.522Z,57.10
2018-06-15T14:18:08.938Z,56.90
2018-06-15T14:20:41.345Z,57.10
2018-06-15T14:23:13.745Z,56.20
2018-06-15T14:25:46.213Z,57.20
2018-06-15T14:28:18.628Z,58.10
2018-06-15T14:30:51.594Z,58.10
2018-06-15T14:33:24.022Z,58.40
2018-06-15T14:35:56.710Z,58.00
2018-06-15T14:38:29.341Z,57.80
2018-06-15T14:41:01.737Z,57.70
2018-06-15T14:43:34.174Z,58.20
2018-06-15T14:46:06.582Z,56.80
2018-06-15T14:48:39.040Z,55.60
2018-06-15T14:51:11.434Z,56.10
2018-06-15T14:53:43.817Z,55.90
2018-06-15T14:56:16.237Z,56.20
2018-06-15T15:01:20.889Z,55.70
2018-06-15T15:03:53.774Z,55.70
2018-06-15T15:06:26.505Z,55.70
2018-06-15T15:08:58.919Z,56.00
2018-06-15T15:14:03.542Z,56.10
2018-06-15T15:16:35.932Z,56.50
2018-06-15T15:19:08.395Z,57.00
2018-06-15T15:21:41.029Z,56.30
2018-06-15T15:24:13.419Z,56.60
2018-06-15T15:26:46.352Z,56.40
2018-06-15T15:29:18.741Z,56.20
2018-06-15T15:31:51.120Z,57.40
2018-06-15T15:34:23.515Z,57.60
2018-06-15T15:36:55.963Z,56.80
2018-06-15T15:39:28.366Z,56.60
2018-06-15T15:42:01.053Z,57.10
2018-06-15T15:44:33.561Z,57.10
2018-06-15T15:47:05.942Z,57.10
2018-06-15T15:49:38.441Z,57.10
2018-06-15T15:52:11.130Z,56.10
2018-06-15T15:54:43.549Z,56.30
2018-06-15T15:57:15.938Z,57.60
2018-06-15T15:59:48.346Z,57.30
2018-06-15T16:02:21.065Z,58.10
2018-06-15T16:04:53.763Z,58.60
2018-06-15T16:07:26.169Z,58.20
2018-06-15T16:09:58.889Z,57.40
2018-06-15T16:12:31.593Z,57.30
2018-06-15T16:15:03.977Z,58.00
2018-06-15T16:17:36.370Z,58.30
2018-06-15T16:20:08.834Z,57.90
2018-06-15T16:22:41.183Z,58.40
2018-06-15T16:25:13.558Z,58.90
2018-06-15T16:27:45.977Z,59.70
2018-06-15T16:30:18.609Z,59.60
2018-06-15T16:32:51.282Z,59.30
2018-06-15T16:35:23.961Z,59.00
2018-06-15T16:37:56.362Z,60.30
2018-06-15T16:40:28.760Z,59.70
2018-06-15T16:43:01.193Z,59.10
2018-06-15T16:45:33.574Z,59.10
2018-06-15T16:48:05.961Z,59.00
2018-06-15T16:50:38.379Z,58.80
2018-06-15T16:53:10.792Z,58.50
2018-06-15T16:55:43.196Z,58.20
2018-06-15T16:58:15.897Z,58.70
2018-06-15T17:00:48.306Z,59.50
2018-06-15T17:03:21.366Z,59.80
2018-06-15T17:05:54.030Z,59.20
2018-06-15T17:08:26.709Z,58.30
2018-06-15T17:10:59.212Z,58.60
2018-06-15T17:13:31.610Z,57.50
2018-06-15T17:16:04.320Z,58.60
2018-06-15T17:18:37.053Z,59.10
2018-06-15T17:21:09.414Z,59.70
2018-06-15T17:23:42.094Z,59.40
2018-06-15T17:26:14.774Z,59.10
2018-06-15T17:28:47.442Z,59.10
2018-06-15T17:31:20.192Z,59.00
2018-06-15T17:33:52.568Z,59.00
2018-06-15T17:36:24.965Z,59.20
2018-06-15T17:41:29.719Z,59.10
2018-06-15T17:44:02.121Z,58.70
2018-06-15T17:46:34.874Z,58.90
2018-06-15T17:49:07.695Z,59.20
2018-06-15T17:51:40.055Z,58.40
2018-06-15T17:54:12.457Z,59.00
2018-06-15T17:56:44.861Z,59.10
2018-06-15T17:59:17.267Z,58.80
2018-06-15T18:01:49.906Z,59.40
2018-06-15T18:06:55.147Z,59.80
2018-06-15T18:09:27.845Z,59.60
2018-06-15T18:12:00.264Z,59.80
2018-06-15T18:14:32.915Z,59.20
2018-06-15T18:17:05.303Z,59.10
2018-06-15T18:19:37.989Z,59.60
2018-06-15T18:22:10.378Z,59.80
2018-06-15T18:24:43.036Z,60.50
2018-06-15T18:27:15.445Z,60.50
2018-06-15T18:29:48.158Z,59.90
2018-06-15T18:32:20.801Z,60.40
2018-06-15T18:34:53.493Z,60.90
2018-06-15T18:37:25.886Z,61.00
2018-06-15T18:39:58.566Z,61.60
2018-06-15T18:42:30.971Z,62.50
2018-06-15T18:45:03.383Z,61.90
2018-06-15T18:47:35.818Z,61.90
2018-06-15T18:50:08.263Z,62.00
2018-06-15T18:52:40.643Z,61.30
2018-06-15T18:55:13.070Z,61.60
2018-06-15T18:57:45.454Z,61.50
2018-06-15T19:00:18.160Z,61.60
2018-06-15T19:02:50.548Z,61.60
2018-06-15T19:05:22.961Z,61.60
2018-06-15T19:07:55.370Z,61.90
2018-06-15T19:10:28.029Z,62.20
2018-06-15T19:13:00.698Z,61.80
2018-06-15T19:15:33.410Z,62.00
2018-06-15T19:18:05.866Z,62.20
2018-06-15T19:20:38.541Z,62.30
2018-06-15T19:23:11.241Z,62.60
2018-06-15T19:25:43.906Z,62.30
2018-06-15T19:30:48.971Z,62.60
2018-06-15T19:33:21.357Z,62.00
2018-06-15T19:35:53.855Z,62.20
2018-06-15T19:38:26.251Z,62.40
2018-06-15T19:40:58.673Z,62.40
2018-06-15T19:43:31.140Z,62.80
2018-06-15T19:46:03.705Z,62.90
2018-06-15T19:48:36.113Z,62.90
2018-06-15T19:51:08.524Z,63.50
2018-06-15T19:53:40.926Z,63.30
2018-06-15T19:56:13.326Z,63.70
2018-06-15T19:58:45.705Z,63.80
2018-06-15T20:01:18.332Z,63.80
2018-06-15T20:03:50.997Z,64.20
2018-06-15T20:06:23.405Z,64.50
2018-06-15T20:08:56.180Z,64.40
2018-06-15T20:11:28.840Z,64.70
2018-06-15T20:14:02.056Z,64.50
2018-06-15T20:16:34.470Z,65.00
2018-06-15T20:19:07.210Z,65.20
2018-06-15T20:21:39.952Z,65.60
2018-06-15T20:24:12.341Z,66.60
2018-06-15T20:26:44.744Z,66.90
2018-06-15T20:29:17.438Z,67.30
2018-06-15T20:31:50.558Z,67.90
2018-06-15T20:34:22.986Z,67.60
2018-06-15T20:36:55.479Z,67.70
2018-06-15T20:39:27.873Z,67.90
2018-06-15T20:42:00.489Z,68.80
2018-06-15T20:44:32.878Z,69.30
2018-06-15T20:47:05.543Z,69.40
2018-06-15T20:49:37.986Z,68.90
2018-06-15T20:52:10.394Z,69.70
2018-06-15T20:54:42.794Z,70.00
2018-06-15T20:57:15.250Z,70.50
2018-06-15T20:59:48.017Z,71.70
2018-06-15T21:02:20.450Z,71.50
2018-06-15T21:04:52.847Z,71.20
2018-06-15T21:07:25.335Z,71.70
2018-06-15T21:09:57.826Z,72.30
2018-06-15T21:12:30.356Z,72.60
2018-06-15T21:15:02.847Z,72.90
2018-06-15T21:17:35.438Z,72.90
2018-06-15T21:20:07.870Z,73.30
2018-06-15T21:22:40.318Z,74.30
2018-06-15T21:25:12.709Z,74.40
2018-06-15T21:27:45.409Z,74.30
2018-06-15T21:30:18.074Z,74.50
2018-06-15T21:32:50.762Z,75.60
2018-06-15T21:35:23.177Z,75.80
2018-06-15T21:37:55.917Z,76.30
2018-06-15T21:40:28.604Z,76.10
2018-06-15T21:43:01.026Z,76.50
2018-06-15T21:45:33.673Z,77.50
2018-06-15T21:48:06.335Z,76.50
2018-06-15T21:50:39.346Z,76.80
2018-06-15T21:53:11.746Z,77.20
2018-06-15T21:55:44.694Z,77.50
2018-06-15T21:58:17.334Z,78.00
2018-06-15T22:00:50.039Z,78.80
2018-06-15T22:03:22.526Z,78.90
2018-06-15T22:05:55.218Z,79.20
2018-06-15T22:08:27.726Z,79.30
2018-06-15T22:11:00.141Z,79.80
2018-06-15T22:13:32.833Z,80.20
2018-06-15T22:16:05.234Z,80.50
2018-06-15T22:18:37.625Z,81.00
2018-06-15T22:21:10.334Z,81.90
2018-06-15T22:23:43.001Z,82.00
2018-06-15T22:26:15.684Z,82.00
2018-06-15T22:28:48.094Z,82.60
2018-06-15T22:31:20.530Z,82.90
2018-06-15T22:33:52.930Z,83.30
2018-06-15T22:36:25.358Z,83.10
2018-06-15T22:38:57.751Z,83.00
2018-06-15T22:41:30.459Z,82.90
2018-06-15T22:44:02.898Z,83.70
2018-06-15T22:46:35.577Z,83.70
2018-06-15T22:49:08.217Z,83.70
2018-06-15T22:51:40.621Z,84.40
2018-06-15T22:54:13.133Z,84.10
2018-06-15T22:56:45.550Z,84.00
2018-06-15T22:59:18.495Z,83.90
2018-06-15T23:01:51.154Z,83.70
2018-06-15T23:04:23.857Z,83.30
2018-06-15T23:06:56.673Z,84.10
2018-06-15T23:09:29.678Z,84.40
2018-06-15T23:12:02.118Z,84.30
2018-06-15T23:14:34.563Z,84.30
2018-06-15T23:17:06.934Z,84.50
2018-06-15T23:19:39.582Z,84.40
2018-06-15T23:22:12.270Z,84.00
2018-06-15T23:24:44.925Z,84.40
2018-06-15T23:27:17.697Z,83.50
2018-06-15T23:29:50.138Z,83.90
2018-06-15T23:32:22.543Z,84.40
2018-06-15T23:34:54.963Z,84.10
2018-06-15T23:37:27.371Z,84.50
2018-06-15T23:39:59.762Z,84.20
2018-06-15T23:42:32.200Z,84.60
2018-06-15T23:45:04.829Z,84.90
2018-06-15T23:47:37.550Z,84.60
2018-06-15T23:50:09.978Z,84.60
2018-06-15T23:52:42.397Z,84.40
2018-06-15T23:55:14.786Z,84.60
2018-06-15T23:57:47.202Z,84.80
